createdAt,value
2018-09-28T00:01:04.853Z,110.73
2018-09-28T00:03:33.676Z,118.20
2018-09-28T00:06:01.457Z,113.53
2018-09-28T00:08:29.246Z,113.67
2018-09-28T00:10:57.074Z,106.30
2018-09-28T00:13:24.874Z,94.30
2018-09-28T00:15:52.711Z,86.93
2018-09-28T00:18:20.531Z,89.53
2018-09-28T00:20:48.339Z,89.50
2018-09-28T00:23:16.202Z,88.27
2018-09-28T00:25:44.066Z,76.43
2018-09-28T00:28:11.877Z,78.90
2018-09-28T00:30:39.722Z,67.77
2018-09-28T00:33:07.529Z,66.97
2018-09-28T00:35:35.328Z,66.93
2018-09-28T00:38:03.161Z,67.23
2018-09-28T00:40:30.991Z,60.63
2018-09-28T00:42:58.784Z,60.50
2018-09-28T00:45:26.598Z,63.33
2018-09-28T00:47:54.510Z,59.07
2018-09-28T00:50:22.341Z,70.50
2018-09-28T00:52:50.186Z,78.17
2018-09-28T00:55:18.040Z,97.67
2018-09-28T00:57:45.834Z,116.53
2018-09-28T01:00:13.687Z,129.70
2018-09-28T01:02:41.516Z,126.57
2018-09-28T01:05:09.285Z,121.67
2018-09-28T01:07:37.102Z,107.70
2018-09-28T01:10:04.989Z,92.23
2018-09-28T01:12:32.757Z,87.53
2018-09-28T01:15:00.554Z,87.10
2018-09-28T01:17:28.341Z,88.27
2018-09-28T01:19:56.184Z,92.80
2018-09-28T01:22:23.982Z,91.00
2018-09-28T01:24:51.798Z,94.13
2018-09-28T01:27:19.642Z,88.27
2018-09-28T01:29:47.469Z,100.13
2018-09-28T01:32:15.290Z,108.50
2018-09-28T01:34:43.100Z,116.47
2018-09-28T01:37:10.913Z,117.43
2018-09-28T01:39:38.762Z,116.27
2018-09-28T01:42:06.681Z,126.30
2018-09-28T01:44:34.521Z,123.43
2018-09-28T01:47:02.319Z,153.50
2018-09-28T01:49:30.136Z,143.63
2018-09-28T01:51:57.913Z,139.00
2018-09-28T01:54:25.685Z,137.87
2018-09-28T01:56:53.482Z,143.37
2018-09-28T01:59:24.285Z,148.37
2018-09-28T02:01:52.083Z,161.90
2018-09-28T02:04:19.848Z,161.67
2018-09-28T02:06:47.645Z,174.87
2018-09-28T02:09:15.423Z,180.90
2018-09-28T02:11:43.211Z,189.53
2018-09-28T02:14:11.020Z,201.30
2018-09-28T02:16:38.848Z,201.60
2018-09-28T02:19:06.645Z,215.93
2018-09-28T02:21:34.468Z,228.63
2018-09-28T02:24:02.294Z,243.43
2018-09-28T02:26:30.058Z,251.80
2018-09-28T02:28:57.839Z,251.87
2018-09-28T02:31:25.633Z,246.57
2018-09-28T02:33:53.424Z,244.17
2018-09-28T02:36:21.201Z,239.90
2018-09-28T02:38:49.021Z,225.87
2018-09-28T02:41:16.843Z,210.83
2018-09-28T02:43:44.658Z,198.80
2018-09-28T02:46:12.447Z,186.77
2018-09-28T02:48:40.286Z,170.40
2018-09-28T02:51:08.081Z,160.63
2018-09-28T02:53:36.888Z,141.88
2018-09-28T02:56:04.889Z,124.35
2018-09-28T02:58:32.758Z,122.35
2018-09-28T03:01:00.571Z,98.90
2018-09-28T03:03:28.397Z,79.80
2018-09-28T03:05:56.244Z,73.87
2018-09-28T03:08:24.109Z,62.17
2018-09-28T03:10:53.136Z,43.15
2018-09-28T03:13:20.970Z,36.15
2018-09-28T03:15:48.906Z,29.27
2018-09-28T03:18:16.749Z,21.82
2018-09-28T03:20:44.602Z,19.50
2018-09-28T03:23:12.392Z,17.37
2018-09-28T03:25:40.331Z,14.28
2018-09-28T03:28:08.170Z,13.88
2018-09-28T03:30:35.989Z,11.95
2018-09-28T03:33:03.911Z,11.03
2018-09-28T03:43:36.462Z,9.35
2018-09-28T03:46:30.024Z,7.75
2018-09-28T03:48:57.915Z,8.78
2018-09-28T03:51:25.924Z,9.93
2018-09-28T03:53:53.720Z,9.85
2018-09-28T03:56:21.562Z,9.90
2018-09-28T03:58:49.428Z,9.95
2018-09-28T04:01:17.279Z,10.93
2018-09-28T04:14:39.468Z,11.78
2018-09-28T04:17:07.320Z,9.93
2018-09-28T04:19:35.148Z,10.95
2018-09-28T04:22:03.280Z,10.45
2018-09-28T04:24:31.833Z,9.95
2018-09-28T04:26:59.651Z,10.78
2018-09-28T04:29:27.473Z,13.98
2018-09-28T04:31:55.287Z,14.40
2018-09-28T04:34:23.122Z,9.73
2018-09-28T04:36:51.396Z,8.90
2018-09-28T04:39:19.242Z,8.50
2018-09-28T04:41:47.251Z,7.33
2018-09-28T04:44:15.053Z,8.28
2018-09-28T04:46:42.844Z,9.35
2018-09-28T04:49:10.650Z,7.33
2018-09-28T04:51:38.511Z,5.78
2018-09-28T04:54:06.385Z,5.22
2018-09-28T04:56:34.214Z,5.30
2018-09-28T04:59:02.078Z,5.53
2018-09-28T05:01:29.910Z,4.60
2018-09-28T05:03:57.701Z,4.42
2018-09-28T05:06:25.466Z,5.05
2018-09-28T05:08:53.292Z,4.62
2018-09-28T05:11:21.100Z,4.87
2018-09-28T05:13:48.975Z,5.90
2018-09-28T05:16:16.789Z,4.08
2018-09-28T05:18:44.711Z,4.25
2018-09-28T05:21:12.553Z,3.50
2018-09-28T05:23:40.370Z,4.70
2018-09-28T05:26:08.235Z,4.37
2018-09-28T05:28:36.069Z,3.65
2018-09-28T05:31:03.920Z,3.50
2018-09-28T05:33:31.701Z,3.77
2018-09-28T05:35:59.549Z,3.95
2018-09-28T05:38:27.390Z,3.92
2018-09-28T05:40:55.245Z,3.33
2018-09-28T05:43:23.736Z,4.62
2018-09-28T05:45:51.606Z,3.37
2018-09-28T05:48:19.446Z,3.33
2018-09-28T05:50:47.240Z,3.67
2018-09-28T05:53:15.080Z,3.90
2018-09-28T05:55:43.211Z,3.02
2018-09-28T05:58:16.535Z,2.60
2018-09-28T06:00:49.998Z,2.95
2018-09-28T06:03:20.329Z,3.35
2018-09-28T06:05:53.749Z,4.00
2018-09-28T06:08:21.553Z,3.80
2018-09-28T06:10:49.443Z,3.85
2018-09-28T06:13:17.928Z,3.15
2018-09-28T06:15:45.787Z,2.27
2018-09-28T06:18:13.599Z,1.95
2018-09-28T06:20:42.419Z,2.50
2018-09-28T06:23:10.234Z,1.92
2018-09-28T06:25:38.078Z,1.82
2018-09-28T06:28:05.956Z,1.40
2018-09-28T06:30:33.854Z,1.40
2018-09-28T06:33:01.651Z,1.30
2018-09-28T06:35:29.452Z,1.02
2018-09-28T06:37:57.311Z,0.80
2018-09-28T06:40:25.098Z,1.10
2018-09-28T06:42:52.984Z,1.70
2018-09-28T06:45:20.835Z,1.90
2018-09-28T06:47:48.723Z,2.05
2018-09-28T06:50:16.538Z,0.88
2018-09-28T06:52:44.335Z,1.72
2018-09-28T06:55:12.273Z,1.60
2018-09-28T06:57:40.133Z,1.67
2018-09-28T07:00:08.490Z,0.98
2018-09-28T07:02:36.457Z,0.50
2018-09-28T07:05:04.345Z,0.75
2018-09-28T07:07:32.178Z,1.25
2018-09-28T07:09:59.976Z,0.70
2018-09-28T07:12:27.868Z,0.50
2018-09-28T07:14:55.733Z,0.68
2018-09-28T07:17:23.549Z,0.60
2018-09-28T07:19:51.337Z,1.07
2018-09-28T07:22:19.170Z,1.10
2018-09-28T07:24:47.016Z,0.65
2018-09-28T07:27:15.090Z,0.68
2018-09-28T07:29:43.922Z,1.07
2018-09-28T07:32:11.658Z,0.90
2018-09-28T07:34:39.577Z,1.75
2018-09-28T07:37:07.607Z,1.15
2018-09-28T07:39:35.222Z,1.17
2018-09-28T07:42:03.133Z,0.85
2018-09-28T07:44:32.065Z,1.05
2018-09-28T07:46:59.898Z,1.10
2018-09-28T07:49:27.680Z,0.75
2018-09-28T07:51:55.540Z,1.07
2018-09-28T07:54:23.369Z,0.78
2018-09-28T07:56:51.186Z,1.32
2018-09-28T07:59:20.015Z,1.45
2018-09-28T08:01:47.847Z,0.42
2018-09-28T08:04:15.708Z,0.50
2018-09-28T08:06:43.534Z,0.90
2018-09-28T08:09:11.485Z,1.52
2018-09-28T08:11:39.335Z,0.68
2018-09-28T08:14:07.770Z,1.52
2018-09-28T08:16:37.058Z,0.50
2018-09-28T08:19:05.120Z,1.50
2018-09-28T08:21:32.947Z,0.78
2018-09-28T08:24:00.809Z,1.32
2018-09-28T08:27:03.486Z,0.93
2018-09-28T08:30:15.278Z,1.62
2018-09-28T08:33:11.292Z,1.02
2018-09-28T08:35:39.123Z,1.22
2018-09-28T08:38:06.936Z,2.35
2018-09-28T08:40:35.398Z,0.85
2018-09-28T08:43:03.223Z,0.60
2018-09-28T08:45:31.346Z,0.98
2018-09-28T08:47:59.158Z,0.42
2018-09-28T08:50:26.997Z,1.00
2018-09-28T08:52:54.793Z,1.07
2018-09-28T08:55:22.621Z,1.10
2018-09-28T08:57:50.441Z,2.15
2018-09-28T09:00:18.298Z,1.02
2018-09-28T09:02:46.115Z,0.85
2018-09-28T09:05:14.010Z,0.85
2018-09-28T09:07:41.855Z,1.80
2018-09-28T09:10:09.980Z,0.70
2018-09-28T09:12:37.845Z,1.32
2018-09-28T09:15:05.701Z,1.65
2018-09-28T09:17:33.520Z,0.80
2018-09-28T09:20:01.345Z,1.37
2018-09-28T09:22:29.289Z,0.75
2018-09-28T09:24:57.180Z,1.47
2018-09-28T09:27:25.016Z,1.10
2018-09-28T09:29:52.840Z,0.90
2018-09-28T09:32:20.648Z,0.88
2018-09-28T09:34:48.444Z,1.13
2018-09-28T09:37:16.282Z,0.78
2018-09-28T09:39:44.102Z,1.92
2018-09-28T09:42:11.902Z,1.10
2018-09-28T09:44:40.086Z,0.50
2018-09-28T09:47:07.970Z,0.30
2018-09-28T09:49:35.766Z,1.05
2018-09-28T09:52:03.684Z,0.53
2018-09-28T09:54:31.537Z,0.80
2018-09-28T09:56:59.341Z,1.25
2018-09-28T09:59:27.133Z,1.15
2018-09-28T10:02:00.606Z,0.90
2018-09-28T10:04:28.436Z,0.53
2018-09-28T10:06:56.213Z,1.12
2018-09-28T10:09:24.059Z,0.60
2018-09-28T10:11:51.891Z,1.17
2018-09-28T10:14:19.726Z,0.75
2018-09-28T10:16:47.496Z,0.85
2018-09-28T10:19:15.354Z,1.02
2018-09-28T10:21:43.163Z,0.90
2018-09-28T10:24:11.004Z,0.93
2018-09-28T10:26:38.861Z,0.90
2018-09-28T10:29:06.873Z,0.70
2018-09-28T10:31:34.695Z,0.68
2018-09-28T10:34:02.537Z,1.35
2018-09-28T10:36:30.492Z,0.80
2018-09-28T10:38:58.309Z,0.78
2018-09-28T10:41:26.115Z,0.98
2018-09-28T10:43:53.942Z,1.02
2018-09-28T10:46:22.746Z,1.40
2018-09-28T10:48:50.602Z,1.27
2018-09-28T10:51:18.508Z,0.60
2018-09-28T10:53:46.262Z,0.80
2018-09-28T10:56:16.104Z,0.37
2018-09-28T10:58:44.071Z,0.60
2018-09-28T11:01:11.916Z,0.80
2018-09-28T11:03:39.718Z,0.88
2018-09-28T11:06:51.574Z,0.70
2018-09-28T11:09:24.962Z,0.60
2018-09-28T11:12:10.038Z,0.62
2018-09-28T11:14:38.088Z,0.88
2018-09-28T11:17:13.298Z,0.60
2018-09-28T11:20:02.001Z,1.52
2018-09-28T11:22:29.937Z,0.70
2018-09-28T11:24:57.790Z,0.72
2018-09-28T11:27:25.829Z,0.93
2018-09-28T11:29:54.458Z,0.93
2018-09-28T11:32:22.465Z,0.75
2018-09-28T11:34:50.334Z,1.02
2018-09-28T11:37:18.242Z,1.10
2018-09-28T11:39:46.196Z,0.55
2018-09-28T11:42:14.184Z,0.55
2018-09-28T11:44:42.963Z,0.90
2018-09-28T11:47:11.879Z,0.60
2018-09-28T11:49:39.801Z,0.57
2018-09-28T11:52:07.746Z,0.78
2018-09-28T11:54:35.626Z,0.88
2018-09-28T11:57:03.549Z,0.72
2018-09-28T11:59:31.473Z,0.80
2018-09-28T12:01:59.370Z,0.80
2018-09-28T12:04:27.257Z,0.90
2018-09-28T12:06:55.265Z,0.98
2018-09-28T12:09:23.170Z,0.80
2018-09-28T12:11:50.965Z,0.85
2018-09-28T12:14:18.772Z,1.20
2018-09-28T12:16:46.645Z,0.50
2018-09-28T12:19:14.518Z,0.68
2018-09-28T12:21:42.351Z,0.50
2018-09-28T12:24:10.184Z,0.72
2018-09-28T12:26:39.666Z,0.50
2018-09-28T12:29:07.522Z,0.45
2018-09-28T12:31:35.633Z,0.80
2018-09-28T12:34:03.509Z,0.70
2018-09-28T12:37:05.841Z,1.22
2018-09-28T12:40:12.605Z,0.68
2018-09-28T12:42:40.599Z,0.68
2018-09-28T12:45:08.738Z,0.90
2018-09-28T12:50:12.121Z,0.60
2018-09-28T12:52:40.059Z,0.68
2018-09-28T12:55:07.875Z,0.90
2018-09-28T12:57:35.751Z,0.60
2018-09-28T13:00:03.813Z,1.05
2018-09-28T13:02:31.698Z,0.60
2018-09-28T13:04:59.512Z,0.50
2018-09-28T13:07:27.370Z,0.50
2018-09-28T13:09:55.175Z,1.45
2018-09-28T13:12:23.059Z,0.80
2018-09-28T13:14:50.912Z,0.78
2018-09-28T13:17:18.726Z,1.10
2018-09-28T13:19:46.620Z,0.50
2018-09-28T13:22:15.521Z,0.40
2018-09-28T13:24:43.452Z,0.40
2018-09-28T13:27:11.274Z,1.37
2018-09-28T13:29:39.098Z,0.60
2018-09-28T13:32:06.949Z,0.47
2018-09-28T13:34:45.737Z,0.53
2018-09-28T13:37:13.629Z,0.40
2018-09-28T13:39:58.316Z,0.57
2018-09-28T13:42:26.220Z,0.62
2018-09-28T13:44:54.057Z,0.50
2018-09-28T13:47:21.853Z,0.47
2018-09-28T13:49:50.839Z,0.50
2018-09-28T13:52:18.858Z,0.20
2018-09-28T13:54:46.770Z,0.65
2018-09-28T13:57:14.549Z,0.40
2018-09-28T13:59:42.381Z,0.65
2018-09-28T14:02:10.258Z,0.45
2018-09-28T14:04:38.171Z,0.30
2018-09-28T14:07:07.124Z,0.20
2018-09-28T14:09:34.842Z,0.82
2018-09-28T14:12:02.729Z,0.40
2018-09-28T14:14:30.747Z,0.42
2018-09-28T14:16:58.576Z,0.45
2018-09-28T14:19:26.392Z,0.47
2018-09-28T14:21:54.258Z,0.40
2018-09-28T14:24:22.048Z,0.35
2018-09-28T14:26:50.072Z,0.60
2018-09-28T14:29:17.768Z,0.30
2018-09-28T14:31:45.588Z,0.40
2018-09-28T14:34:13.448Z,0.80
2018-09-28T14:36:41.346Z,0.35
2018-09-28T14:39:09.719Z,0.30
2018-09-28T14:41:37.588Z,0.40
2018-09-28T14:44:05.607Z,0.20
2018-09-28T14:46:33.656Z,0.37
2018-09-28T14:49:01.647Z,0.42
2018-09-28T14:51:29.377Z,0.20
2018-09-28T14:53:58.278Z,0.20
2018-09-28T14:56:26.144Z,0.30
2018-09-28T14:58:53.997Z,0.28
2018-09-28T15:01:21.953Z,0.53
2018-09-28T15:03:49.804Z,0.40
2018-09-28T15:06:17.722Z,0.20
2018-09-28T15:08:45.700Z,0.20
2018-09-28T15:11:13.741Z,0.30
2018-09-28T15:13:41.652Z,0.20
2018-09-28T15:16:10.464Z,0.20
2018-09-28T15:18:38.441Z,0.40
2018-09-28T15:21:06.428Z,0.20
2018-09-28T15:23:34.303Z,0.30
2018-09-28T15:26:02.252Z,0.40
2018-09-28T15:28:30.172Z,0.47
2018-09-28T15:30:59.331Z,0.20
2018-09-28T15:33:27.163Z,0.30
2018-09-28T15:35:56.225Z,0.30
2018-09-28T15:38:24.042Z,0.50
2018-09-28T15:40:51.896Z,0.20
2018-09-28T15:43:19.776Z,0.20
2018-09-28T15:45:47.649Z,0.20
2018-09-28T15:48:15.521Z,0.50
2018-09-28T15:50:43.324Z,0.20
2018-09-28T15:53:18.275Z,3.50
2018-09-28T15:55:46.113Z,0.65
2018-09-28T15:58:14.171Z,0.53
2018-09-28T16:00:42.781Z,0.30
2018-09-28T16:03:11.691Z,0.40
2018-09-28T16:05:39.548Z,0.35
2018-09-28T16:08:07.429Z,0.57
2018-09-28T16:10:35.371Z,0.50
2018-09-28T16:13:03.260Z,0.47
2018-09-28T16:15:32.674Z,1.20
2018-09-28T16:18:00.554Z,0.55
2018-09-28T16:20:28.636Z,0.40
2018-09-28T16:22:56.465Z,0.30
2018-09-28T16:25:24.297Z,0.68
2018-09-28T16:27:52.137Z,0.47
2018-09-28T16:30:21.964Z,1.50
2018-09-28T16:32:49.895Z,0.30
2018-09-28T16:35:17.753Z,0.57
2018-09-28T16:37:46.884Z,0.33
2018-09-28T16:40:14.730Z,0.55
2018-09-28T16:42:42.635Z,0.50
2018-09-28T16:45:11.536Z,0.42
2018-09-28T16:47:39.397Z,0.30
2018-09-28T16:50:07.569Z,0.47
2018-09-28T16:52:35.371Z,0.60
2018-09-28T16:55:03.247Z,0.60
2018-09-28T16:57:31.082Z,0.47
2018-09-28T17:00:02.633Z,0.50
2018-09-28T17:02:30.494Z,0.53
2018-09-28T17:05:03.896Z,0.30
2018-09-28T17:07:31.795Z,0.30
2018-09-28T17:09:59.675Z,0.30
2018-09-28T17:12:27.707Z,0.23
2018-09-28T17:14:55.980Z,0.30
2018-09-28T17:17:45.754Z,0.47
2018-09-28T17:20:13.695Z,0.63
2018-09-28T17:23:21.278Z,0.23
2018-09-28T17:25:49.171Z,0.20
2018-09-28T17:28:16.991Z,0.60
2018-09-28T17:30:44.794Z,0.20
2018-09-28T17:33:12.589Z,0.23
2018-09-28T17:35:40.453Z,0.30
2018-09-28T17:38:08.283Z,0.50
2018-09-28T17:40:36.154Z,0.30
2018-09-28T17:43:04.053Z,0.40
2018-09-28T17:45:31.888Z,0.50
2018-09-28T17:47:59.785Z,0.30
2018-09-28T17:50:27.644Z,0.40
2018-09-28T17:52:55.558Z,0.30
2018-09-28T17:55:23.407Z,0.50
2018-09-28T17:57:51.277Z,0.30
2018-09-28T18:00:19.203Z,0.40
2018-09-28T18:02:47.009Z,0.30
2018-09-28T18:05:14.856Z,0.40
2018-09-28T18:07:42.713Z,0.90
2018-09-28T18:10:10.532Z,0.70
2018-09-28T18:12:38.330Z,0.20
2018-09-28T18:15:06.294Z,1.23
2018-09-28T18:17:34.161Z,0.50
2018-09-28T18:20:02.047Z,0.30
2018-09-28T18:22:29.978Z,2.73
2018-09-28T18:24:57.806Z,0.47
2018-09-28T18:27:25.650Z,0.33
2018-09-28T18:29:53.518Z,0.40
2018-09-28T18:32:21.326Z,0.20
2018-09-28T18:34:49.135Z,0.30
2018-09-28T18:37:17.043Z,0.20
2018-09-28T18:39:44.880Z,0.30
2018-09-28T18:42:12.721Z,0.63
2018-09-28T18:44:40.613Z,0.30
2018-09-28T18:47:08.991Z,0.30
2018-09-28T18:49:36.826Z,0.37
2018-09-28T18:52:04.718Z,0.30
2018-09-28T18:54:32.570Z,0.60
2018-09-28T18:57:00.426Z,0.50
2018-09-28T18:59:28.296Z,0.50
2018-09-28T19:01:56.181Z,0.50
2018-09-28T19:04:24.142Z,0.60
2018-09-28T19:06:52.002Z,0.40
2018-09-28T19:09:20.824Z,0.33
2018-09-28T19:11:48.652Z,0.60
2018-09-28T19:14:16.534Z,0.53
2018-09-28T19:16:44.453Z,0.40
2018-09-28T19:19:12.296Z,0.40
2018-09-28T19:21:40.161Z,0.47
2018-09-28T19:24:08.125Z,0.40
2018-09-28T19:26:36.004Z,0.60
2018-09-28T19:29:03.969Z,0.80
2018-09-28T19:31:31.855Z,0.97
2018-09-28T19:33:59.770Z,0.60
2018-09-28T19:36:27.607Z,0.40
2018-09-28T19:38:55.473Z,0.77
2018-09-28T19:41:23.333Z,0.43
2018-09-28T19:43:51.654Z,0.40
2018-09-28T19:46:19.558Z,0.40
2018-09-28T19:48:47.363Z,0.50
2018-09-28T19:51:15.171Z,0.30
2018-09-28T19:53:43.086Z,1.33
2018-09-28T19:56:10.948Z,0.37
2018-09-28T19:58:39.828Z,0.40
2018-09-28T20:01:07.768Z,0.50
2018-09-28T20:03:35.573Z,0.47
2018-09-28T20:06:03.475Z,0.30
2018-09-28T20:08:31.391Z,0.30
2018-09-28T20:10:59.225Z,0.40
2018-09-28T20:13:27.008Z,0.70
2018-09-28T20:15:54.903Z,0.53
2018-09-28T20:18:22.771Z,0.67
2018-09-28T20:20:50.616Z,1.10
2018-09-28T20:23:18.437Z,1.70
2018-09-28T20:25:46.325Z,2.70
2018-09-28T20:28:14.164Z,2.30
2018-09-28T20:30:41.977Z,2.80
2018-09-28T20:33:09.859Z,2.33
2018-09-28T20:35:37.696Z,2.70
2018-09-28T20:38:05.523Z,3.70
2018-09-28T20:40:34.389Z,3.67
2018-09-28T20:43:02.175Z,2.70
2018-09-28T20:45:30.034Z,3.63
2018-09-28T20:47:57.838Z,1.83
2018-09-28T20:50:25.701Z,2.90
2018-09-28T20:52:53.545Z,3.80
2018-09-28T20:55:21.477Z,3.30
2018-09-28T20:57:49.369Z,3.50
2018-09-28T21:00:17.278Z,4.20
2018-09-28T21:02:45.084Z,4.10
2018-09-28T21:05:12.949Z,2.13
2018-09-28T21:07:40.909Z,1.67
2018-09-28T21:10:08.752Z,0.90
2018-09-28T21:12:36.602Z,0.90
2018-09-28T21:15:05.534Z,0.67
2018-09-28T21:17:33.599Z,1.07
2018-09-28T21:20:02.468Z,0.60
2018-09-28T21:22:30.258Z,0.63
2018-09-28T21:24:58.076Z,0.40
2018-09-28T21:27:25.912Z,1.00
2018-09-28T21:29:53.724Z,0.60
2018-09-28T21:32:21.608Z,0.70
2018-09-28T21:34:49.422Z,1.90
2018-09-28T21:37:17.241Z,1.63
2018-09-28T21:39:45.070Z,1.30
2018-09-28T21:42:13.940Z,1.60
2018-09-28T21:44:41.835Z,1.53
2018-09-28T21:47:09.662Z,1.90
2018-09-28T21:49:37.489Z,3.47
2018-09-28T21:52:05.366Z,3.33
2018-09-28T21:54:33.238Z,3.63
2018-09-28T21:57:01.060Z,3.83
2018-09-28T21:59:28.899Z,2.50
2018-09-28T22:01:56.771Z,2.17
2018-09-28T22:04:25.630Z,1.87
2018-09-28T22:06:53.495Z,0.80
2018-09-28T22:09:21.372Z,0.40
2018-09-28T22:11:49.269Z,0.50
2018-09-28T22:14:17.085Z,0.47
2018-09-28T22:16:45.005Z,0.57
2018-09-28T22:19:12.886Z,0.30
2018-09-28T22:21:40.695Z,0.40
2018-09-28T22:24:09.646Z,0.87
2018-09-28T22:26:37.469Z,1.03
2018-09-28T22:29:05.334Z,0.50
2018-09-28T22:31:33.148Z,0.50
2018-09-28T22:34:00.974Z,0.67
2018-09-28T22:36:28.800Z,0.50
2018-09-28T22:38:56.607Z,0.77
2018-09-28T22:41:24.419Z,0.40
2018-09-28T22:43:52.302Z,0.63
2018-09-28T22:46:20.148Z,0.50
2018-09-28T22:48:47.976Z,0.40
2018-09-28T22:51:15.802Z,0.40
2018-09-28T22:53:43.625Z,0.40
2018-09-28T22:56:11.431Z,0.90
2018-09-28T22:58:39.257Z,0.40
2018-09-28T23:01:07.368Z,0.80
2018-09-28T23:03:35.173Z,0.80
2018-09-28T23:06:03.043Z,0.70
2018-09-28T23:08:30.943Z,0.40
2018-09-28T23:10:58.763Z,0.87
2018-09-28T23:13:26.549Z,0.70
2018-09-28T23:15:54.365Z,0.40
2018-09-28T23:18:22.187Z,1.10
2018-09-28T23:20:50.018Z,0.50
2018-09-28T23:23:17.854Z,0.83
2018-09-28T23:25:45.694Z,0.40
2018-09-28T23:28:13.493Z,0.50
2018-09-28T23:30:41.296Z,0.70
2018-09-28T23:33:09.126Z,0.70
2018-09-28T23:35:36.911Z,1.40
2018-09-28T23:38:04.811Z,0.70
2018-09-28T23:40:32.679Z,0.70
2018-09-28T23:43:00.477Z,0.60
2018-09-28T23:45:28.310Z,0.73
2018-09-28T23:47:56.146Z,1.27
2018-09-28T23:50:24.012Z,1.30
2018-09-28T23:52:51.871Z,1.27
2018-09-28T23:55:19.707Z,1.63
2018-09-28T23:57:47.521Z,1.10
